Time;durP1;ratioP1;P1;durP2;ratioP2;P2;SDS_P1;SDS_P2;PMS_P1;PMS_P2;Temp;Humidity;BMP_temperature;BMP_pressure;BME280_temperature;BME280_humidity;BME280_pressure;Samples;Min_cycle;Max_cycle;Signal;HPM_P1;HPM_P2
2023/12/27 00:01:51;;;;;;;20.52;4.05;;;4.20;99.90;;;;;;5013999;28;20522;-58
2023/12/27 00:04:18;;;;;;;17.77;4.97;;;4.20;99.90;;;;;;5016436;28;20364;-58
2023/12/27 00:06:44;;;;;;;14.23;4.22;;;4.10;99.90;;;;;;5011021;28;20029;-58
2023/12/27 00:09:09;;;;;;;13.32;3.97;;;4.10;99.90;;;;;;5011887;28;20022;-57
2023/12/27 00:11:36;;;;;;;19.55;4.82;;;4.20;99.90;;;;;;5013554;28;20569;-58
2023/12/27 00:14:02;;;;;;;19.10;4.88;;;4.10;99.90;;;;;;5011602;28;20029;-55
2023/12/27 00:16:28;;;;;;;20.27;4.13;;;4.00;99.90;;;;;;5016337;28;20583;-57
2023/12/27 00:18:54;;;;;;;17.33;4.30;;;4.00;99.90;;;;;;5011082;28;20034;-57
2023/12/27 00:21:19;;;;;;;12.60;3.72;;;3.80;99.90;;;;;;5015602;28;20022;-57
2023/12/27 00:23:45;;;;;;;15.82;5.90;;;3.70;99.90;;;;;;5010579;28;20464;-57
2023/12/27 00:26:10;;;;;;;17.15;5.07;;;3.60;99.90;;;;;;5011413;28;20142;-58
2023/12/27 00:28:36;;;;;;;16.23;3.80;;;3.60;99.90;;;;;;5007924;28;20026;-57
2023/12/27 00:31:01;;;;;;;19.27;4.90;;;3.50;99.90;;;;;;5014394;28;20041;-57
2023/12/27 00:33:27;;;;;;;13.70;3.85;;;3.60;99.90;;;;;;5011967;28;20037;-57
2023/12/27 00:35:53;;;;;;;22.60;4.75;;;3.50;99.90;;;;;;5014870;28;20044;-55
2023/12/27 00:38:18;;;;;;;28.25;4.50;;;3.50;99.90;;;;;;5009091;28;20018;-55
2023/12/27 00:40:44;;;;;;;19.55;4.00;;;3.40;99.90;;;;;;5015131;28;20084;-58
2023/12/27 00:43:09;;;;;;;23.60;5.00;;;3.30;99.90;;;;;;5007746;28;20049;-54
2023/12/27 00:45:35;;;;;;;18.02;4.80;;;3.40;99.90;;;;;;5016598;28;20030;-55
2023/12/27 00:48:00;;;;;;;16.45;4.80;;;3.50;99.90;;;;;;5014865;28;20037;-57
2023/12/27 00:50:26;;;;;;;13.30;4.07;;;3.60;99.90;;;;;;5013583;28;20378;-58
2023/12/27 00:52:51;;;;;;;11.43;4.70;;;3.50;99.90;;;;;;5016015;28;20096;-57
2023/12/27 00:55:17;;;;;;;14.43;4.15;;;3.40;99.90;;;;;;5015857;28;20018;-56
2023/12/27 00:57:42;;;;;;;20.67;4.28;;;3.20;99.90;;;;;;5009612;28;20038;-53
2023/12/27 01:00:08;;;;;;;39.25;4.45;;;3.20;99.90;;;;;;5007194;28;20022;-56
2023/12/27 01:02:35;;;;;;;25.02;4.70;;;3.30;99.90;;;;;;5004207;28;20396;-56
2023/12/27 01:05:01;;;;;;;17.30;3.90;;;3.30;99.90;;;;;;5012991;28;20017;-58
2023/12/27 01:07:26;;;;;;;17.80;4.63;;;3.40;99.90;;;;;;4991122;28;20045;-55
2023/12/27 01:09:52;;;;;;;18.20;4.90;;;3.40;99.90;;;;;;5011015;28;20026;-55
2023/12/27 01:12:17;;;;;;;14.68;4.35;;;3.40;99.90;;;;;;5010278;28;20031;-55
2023/12/27 01:14:43;;;;;;;15.18;3.85;;;3.40;99.90;;;;;;5012606;28;20097;-56
2023/12/27 01:17:09;;;;;;;11.90;4.25;;;3.40;99.90;;;;;;5007493;28;20052;-58
2023/12/27 01:19:35;;;;;;;12.48;4.47;;;3.30;99.90;;;;;;5012209;28;20149;-54
2023/12/27 01:22:00;;;;;;;19.38;4.25;;;3.20;99.90;;;;;;4988171;28;20018;-56
2023/12/27 01:24:26;;;;;;;11.10;4.10;;;3.20;99.90;;;;;;5012459;28;20025;-56
2023/12/27 01:26:51;;;;;;;23.35;4.82;;;3.20;99.90;;;;;;5007723;28;20030;-54
2023/12/27 01:29:17;;;;;;;24.30;5.75;;;3.10;99.90;;;;;;5012798;28;20420;-54
2023/12/27 01:31:42;;;;;;;20.45;4.68;;;3.10;99.90;;;;;;5010442;28;20400;-54
2023/12/27 01:34:08;;;;;;;17.13;5.35;;;3.20;99.90;;;;;;5005863;28;20034;-55
2023/12/27 01:36:33;;;;;;;22.30;5.70;;;3.10;99.90;;;;;;5007354;28;20048;-53
2023/12/27 01:38:59;;;;;;;17.88;5.50;;;3.20;99.90;;;;;;5008783;28;20484;-54
2023/12/27 01:41:24;;;;;;;27.27;5.90;;;3.30;99.90;;;;;;5009228;28;20099;-54
2023/12/27 01:43:50;;;;;;;22.10;5.63;;;3.50;99.90;;;;;;5008333;28;20095;-54
2023/12/27 01:46:15;;;;;;;21.30;5.90;;;3.60;99.90;;;;;;5009819;28;20089;-57
2023/12/27 01:48:42;;;;;;;17.55;5.30;;;3.70;99.90;;;;;;5010917;28;20579;-54
2023/12/27 01:51:08;;;;;;;20.23;6.38;;;3.70;99.90;;;;;;5011328;28;20057;-54
2023/12/27 01:53:33;;;;;;;20.38;6.65;;;3.80;99.90;;;;;;5010869;28;20065;-58
2023/12/27 01:56:01;;;;;;;28.38;7.00;;;3.70;99.90;;;;;;5009310;28;20026;-54
2023/12/27 01:58:27;;;;;;;29.27;7.07;;;3.60;99.90;;;;;;5011197;28;20121;-56
2023/12/27 02:00:53;;;;;;;23.67;7.60;;;3.60;99.90;;;;;;5009270;28;20196;-58
2023/12/27 02:03:18;;;;;;;26.35;7.93;;;3.60;99.90;;;;;;5011339;28;20138;-57
2023/12/27 02:05:45;;;;;;;28.80;7.47;;;3.60;99.90;;;;;;5012004;28;20042;-57
2023/12/27 02:08:12;;;;;;;26.35;10.10;;;3.50;99.90;;;;;;5007293;28;20080;-58
2023/12/27 02:10:38;;;;;;;34.40;10.23;;;3.50;99.90;;;;;;5011248;28;20026;-55
2023/12/27 02:13:05;;;;;;;32.58;10.50;;;3.50;99.90;;;;;;5006317;28;20022;-58
2023/12/27 02:15:31;;;;;;;35.05;9.57;;;3.50;99.90;;;;;;5010805;28;20026;-57
2023/12/27 02:17:59;;;;;;;39.03;11.13;;;3.50;99.90;;;;;;5009331;28;20061;-56
2023/12/27 02:20:25;;;;;;;45.38;12.90;;;3.50;99.90;;;;;;5010202;28;20026;-55
2023/12/27 02:22:52;;;;;;;43.30;12.68;;;3.40;99.90;;;;;;5010776;28;20290;-55
2023/12/27 02:25:19;;;;;;;41.03;11.00;;;3.50;99.90;;;;;;5010683;28;20018;-57
2023/12/27 02:27:47;;;;;;;32.42;9.32;;;3.40;99.90;;;;;;5006163;28;20034;-54
2023/12/27 02:30:17;;;;;;;33.85;9.13;;;3.50;99.90;;;;;;5008893;28;20487;-56
2023/12/27 02:32:42;;;;;;;25.08;7.20;;;3.50;99.90;;;;;;5009460;28;20022;-55
2023/12/27 02:35:09;;;;;;;33.75;8.77;;;3.50;99.90;;;;;;5010136;28;20076;-57
2023/12/27 02:37:34;;;;;;;27.67;6.80;;;3.50;99.90;;;;;;5011457;28;20054;-56
2023/12/27 02:40:03;;;;;;;27.15;6.70;;;3.50;99.90;;;;;;5007855;28;20053;-53
2023/12/27 02:42:28;;;;;;;19.27;6.38;;;3.60;99.90;;;;;;5006323;28;20036;-55
2023/12/27 02:44:54;;;;;;;21.42;6.57;;;3.60;99.90;;;;;;5008053;28;20018;-55
2023/12/27 02:47:19;;;;;;;26.80;7.57;;;3.70;99.90;;;;;;5008746;28;20538;-55
2023/12/27 02:49:45;;;;;;;24.85;7.28;;;3.70;99.90;;;;;;5011198;28;20030;-56
2023/12/27 02:52:10;;;;;;;21.25;5.68;;;3.70;99.90;;;;;;5010525;28;20122;-56
2023/12/27 02:54:36;;;;;;;22.05;7.60;;;3.80;99.90;;;;;;5009820;28;20033;-57
2023/12/27 02:57:02;;;;;;;28.35;6.82;;;3.80;99.90;;;;;;5008590;28;20515;-56
2023/12/27 02:59:27;;;;;;;23.52;5.80;;;3.70;99.90;;;;;;5010263;28;20118;-58
2023/12/27 03:01:53;;;;;;;14.25;5.50;;;3.50;99.90;;;;;;5011211;28;20022;-57
2023/12/27 03:04:18;;;;;;;15.75;5.18;;;3.40;99.90;;;;;;5005935;28;20029;-56
2023/12/27 03:06:44;;;;;;;25.85;6.00;;;3.50;99.90;;;;;;5008541;28;20034;-57
2023/12/27 03:09:10;;;;;;;21.10;5.03;;;3.60;99.90;;;;;;5008587;28;20030;-57
2023/12/27 03:11:35;;;;;;;18.00;5.95;;;3.70;99.90;;;;;;5010280;28;20024;-53
2023/12/27 03:14:01;;;;;;;17.08;5.10;;;3.80;99.90;;;;;;5005891;28;20034;-54
2023/12/27 03:16:28;;;;;;;19.23;6.43;;;3.80;99.90;;;;;;5006743;28;20041;-57
2023/12/27 03:18:53;;;;;;;16.75;5.32;;;3.80;99.90;;;;;;5005497;28;20045;-56
2023/12/27 03:21:19;;;;;;;23.30;6.93;;;3.80;99.90;;;;;;5006786;28;20034;-56
2023/12/27 03:23:45;;;;;;;21.17;5.63;;;3.90;99.90;;;;;;5007584;28;20022;-56
2023/12/27 03:26:11;;;;;;;18.60;6.03;;;3.90;99.90;;;;;;5010071;28;20480;-57
2023/12/27 03:28:36;;;;;;;17.35;5.57;;;4.00;99.90;;;;;;4989918;28;20022;-57
2023/12/27 03:31:02;;;;;;;19.00;5.55;;;4.00;99.90;;;;;;5007501;28;20037;-56
2023/12/27 03:33:27;;;;;;;15.45;4.65;;;4.00;99.90;;;;;;5006543;28;20143;-58
2023/12/27 03:35:53;;;;;;;17.67;4.43;;;4.00;99.90;;;;;;5011083;28;20042;-58
2023/12/27 03:38:18;;;;;;;15.45;5.30;;;4.10;99.90;;;;;;5006618;28;20042;-55
2023/12/27 03:40:44;;;;;;;21.65;5.28;;;4.10;99.90;;;;;;5004413;28;20030;-55
2023/12/27 03:43:09;;;;;;;24.10;5.32;;;4.00;99.90;;;;;;5007690;28;20029;-57
2023/12/27 03:45:36;;;;;;;23.67;7.38;;;4.00;99.90;;;;;;5006861;28;20026;-58
2023/12/27 03:48:01;;;;;;;21.20;4.50;;;4.00;99.90;;;;;;5010258;28;20030;-55
2023/12/27 03:50:27;;;;;;;20.58;4.97;;;4.00;99.90;;;;;;5008016;28;20034;-54
2023/12/27 03:52:52;;;;;;;14.77;4.32;;;4.00;99.90;;;;;;5006138;28;20030;-54
2023/12/27 03:55:18;;;;;;;14.48;4.47;;;4.10;99.90;;;;;;5004405;28;20029;-55
2023/12/27 03:57:43;;;;;;;21.83;5.28;;;4.00;99.90;;;;;;5008097;28;20493;-56
2023/12/27 04:00:10;;;;;;;16.77;4.53;;;4.10;99.90;;;;;;5008556;28;20033;-57
2023/12/27 04:02:36;;;;;;;10.48;4.70;;;4.10;99.90;;;;;;5007886;28;20084;-56
2023/12/27 04:05:01;;;;;;;16.30;4.55;;;4.10;99.90;;;;;;5007501;28;20437;-55
2023/12/27 04:07:29;;;;;;;18.48;5.47;;;4.20;99.90;;;;;;5009195;28;20022;-57
2023/12/27 04:09:55;;;;;;;15.05;5.20;;;4.30;99.90;;;;;;5010027;28;20018;-58
2023/12/27 04:12:20;;;;;;;29.77;5.78;;;4.40;99.90;;;;;;5008213;28;20607;-58
2023/12/27 04:14:46;;;;;;;17.63;4.97;;;4.40;99.90;;;;;;5007185;28;20179;-56
2023/12/27 04:17:11;;;;;;;17.20;5.55;;;4.50;99.90;;;;;;5006170;28;20125;-59
2023/12/27 04:19:37;;;;;;;19.83;5.10;;;4.50;99.90;;;;;;5009519;28;20057;-57
2023/12/27 04:22:02;;;;;;;16.98;5.68;;;4.60;99.90;;;;;;5008797;28;20536;-55
2023/12/27 04:24:28;;;;;;;20.48;5.78;;;4.60;99.90;;;;;;5008070;28;20034;-56
2023/12/27 04:26:53;;;;;;;24.85;5.55;;;4.60;99.90;;;;;;5007486;28;20057;-57
2023/12/27 04:29:19;;;;;;;21.45;5.22;;;4.70;99.90;;;;;;5006356;28;20022;-58
2023/12/27 04:31:44;;;;;;;19.13;4.70;;;4.70;99.90;;;;;;5009641;28;20558;-55
2023/12/27 04:34:11;;;;;;;22.40;5.95;;;4.60;99.90;;;;;;5010303;28;20175;-55
2023/12/27 04:36:36;;;;;;;19.33;6.30;;;4.70;99.90;;;;;;5012619;28;20435;-57
2023/12/27 04:39:02;;;;;;;16.00;5.07;;;4.70;99.90;;;;;;5011473;28;20044;-57
2023/12/27 04:41:28;;;;;;;21.38;5.03;;;4.80;99.90;;;;;;5010397;28;20526;-56
2023/12/27 04:43:53;;;;;;;22.42;5.57;;;4.90;99.90;;;;;;5013356;28;20116;-56
2023/12/27 04:46:19;;;;;;;15.55;4.97;;;4.90;99.90;;;;;;5012073;28;20428;-58
2023/12/27 04:48:44;;;;;;;26.95;5.75;;;4.90;99.90;;;;;;5013413;28;20034;-56
2023/12/27 04:51:10;;;;;;;24.02;5.05;;;5.00;99.90;;;;;;5010578;28;20034;-56
2023/12/27 04:53:35;;;;;;;21.20;5.07;;;5.10;99.90;;;;;;5012142;28;20026;-55
2023/12/27 04:56:01;;;;;;;21.75;4.35;;;5.20;99.90;;;;;;5012487;28;20469;-56
2023/12/27 04:58:26;;;;;;;29.52;5.57;;;5.20;99.90;;;;;;5011369;28;20419;-55
2023/12/27 05:00:52;;;;;;;17.80;4.70;;;5.30;99.90;;;;;;5011468;28;20041;-57
2023/12/27 05:03:17;;;;;;;27.90;5.28;;;5.30;99.90;;;;;;5012321;28;20076;-56
2023/12/27 05:05:43;;;;;;;17.33;4.72;;;5.30;99.90;;;;;;5012826;28;20372;-55
2023/12/27 05:08:08;;;;;;;18.67;4.50;;;5.40;99.90;;;;;;5012798;28;20022;-57
2023/12/27 05:10:34;;;;;;;16.58;4.53;;;5.40;99.90;;;;;;5010896;28;20118;-55
2023/12/27 05:13:00;;;;;;;16.80;4.72;;;5.40;99.90;;;;;;5012687;28;20048;-55
2023/12/27 05:15:25;;;;;;;22.25;4.22;;;5.40;99.90;;;;;;5010013;28;20061;-57
2023/12/27 05:17:51;;;;;;;22.35;4.60;;;5.50;99.90;;;;;;5011571;28;20033;-58
2023/12/27 05:20:16;;;;;;;16.92;4.22;;;5.50;99.90;;;;;;5010294;28;20101;-58
2023/12/27 05:22:44;;;;;;;11.98;4.20;;;5.50;99.90;;;;;;5010420;28;20065;-58
2023/12/27 05:25:10;;;;;;;25.48;5.13;;;5.60;99.90;;;;;;5012156;28;20357;-57
2023/12/27 05:27:35;;;;;;;10.68;4.75;;;5.60;99.90;;;;;;5010463;28;20038;-55
2023/12/27 05:30:02;;;;;;;14.35;5.25;;;5.70;99.90;;;;;;5011903;28;20057;-55
2023/12/27 05:32:28;;;;;;;8.30;3.55;;;5.70;99.90;;;;;;5009611;28;20145;-54
2023/12/27 05:34:54;;;;;;;22.55;4.18;;;5.70;99.90;;;;;;5010973;28;20117;-55
2023/12/27 05:37:20;;;;;;;22.15;4.35;;;5.70;99.90;;;;;;5009111;28;20503;-57
2023/12/27 05:39:45;;;;;;;23.00;4.38;;;5.80;99.90;;;;;;5012461;28;20036;-55
2023/12/27 05:42:13;;;;;;;19.75;4.53;;;5.80;99.90;;;;;;5010054;28;20397;-52
2023/12/27 05:44:39;;;;;;;20.85;4.43;;;5.90;99.90;;;;;;5010594;28;20685;-57
2023/12/27 05:47:05;;;;;;;11.50;3.85;;;5.90;99.90;;;;;;5011736;28;20101;-57
2023/12/27 05:49:30;;;;;;;19.52;4.78;;;5.90;99.90;;;;;;5009348;28;20085;-57
2023/12/27 05:51:56;;;;;;;14.52;4.57;;;6.00;99.90;;;;;;5010960;28;20034;-57
2023/12/27 05:54:21;;;;;;;15.88;5.07;;;6.00;99.90;;;;;;5009200;28;20033;-53
2023/12/27 05:56:47;;;;;;;12.32;4.43;;;6.00;99.90;;;;;;5007117;28;20441;-56
2023/12/27 05:59:13;;;;;;;12.85;4.30;;;6.10;99.90;;;;;;5009561;28;20515;-57
2023/12/27 06:01:46;;;;;;;24.75;5.10;;;6.00;99.90;;;;;;5011378;28;20028;-55
2023/12/27 06:04:11;;;;;;;21.67;5.22;;;6.10;99.90;;;;;;5010371;28;20022;-57
2023/12/27 06:06:36;;;;;;;20.67;5.15;;;6.10;99.90;;;;;;5011242;28;20104;-57
2023/12/27 06:09:03;;;;;;;14.77;5.68;;;6.10;99.90;;;;;;5010553;28;20022;-55
2023/12/27 06:11:29;;;;;;;16.60;5.03;;;6.20;99.90;;;;;;5011362;28;20072;-55
2023/12/27 06:13:54;;;;;;;21.95;5.22;;;6.20;99.90;;;;;;5010992;28;20457;-55
2023/12/27 06:16:19;;;;;;;20.80;5.93;;;6.30;99.90;;;;;;5010226;28;20083;-57
2023/12/27 06:18:45;;;;;;;16.17;5.70;;;6.30;99.90;;;;;;5010712;28;20022;-57
2023/12/27 06:21:10;;;;;;;23.27;5.80;;;6.40;99.90;;;;;;5010089;28;20528;-56
2023/12/27 06:23:36;;;;;;;15.63;5.88;;;6.40;99.90;;;;;;5011111;28;20043;-56
2023/12/27 06:26:01;;;;;;;13.25;5.43;;;6.50;99.90;;;;;;5011841;28;20077;-54
2023/12/27 06:28:28;;;;;;;28.60;6.93;;;6.50;99.90;;;;;;5009357;28;20399;-56
2023/12/27 06:30:53;;;;;;;22.67;6.10;;;6.50;99.90;;;;;;5011184;28;20026;-55
2023/12/27 06:33:19;;;;;;;24.08;5.90;;;6.60;99.90;;;;;;5010051;28;20053;-57
2023/12/27 06:35:44;;;;;;;24.60;6.10;;;6.60;99.90;;;;;;5005321;28;20432;-54
2023/12/27 06:38:10;;;;;;;26.42;6.90;;;6.70;99.90;;;;;;5011450;28;20029;-55
2023/12/27 06:40:35;;;;;;;20.75;6.60;;;6.70;99.90;;;;;;5011246;28;20480;-55
2023/12/27 06:43:01;;;;;;;14.95;5.38;;;6.80;99.90;;;;;;5010251;28;20022;-57
2023/12/27 06:45:26;;;;;;;19.50;6.57;;;6.80;99.90;;;;;;5010119;28;20022;-57
2023/12/27 06:47:52;;;;;;;18.50;5.95;;;6.80;99.90;;;;;;5010410;28;20030;-58
2023/12/27 06:50:17;;;;;;;11.73;5.95;;;6.90;99.90;;;;;;5007597;28;20101;-57
2023/12/27 06:52:43;;;;;;;20.15;6.53;;;6.90;99.90;;;;;;5010749;28;20408;-55
2023/12/27 06:55:10;;;;;;;21.42;6.80;;;7.00;99.90;;;;;;5009613;28;20018;-57
2023/12/27 06:57:35;;;;;;;22.10;5.70;;;7.00;99.90;;;;;;5008835;28;20041;-57
2023/12/27 07:00:01;;;;;;;20.80;5.93;;;7.00;99.90;;;;;;5011027;28;20501;-55
2023/12/27 07:02:26;;;;;;;26.05;6.25;;;7.10;99.90;;;;;;5009738;28;20443;-57
2023/12/27 07:04:52;;;;;;;27.45;6.88;;;7.10;99.90;;;;;;5011262;28;20021;-57
2023/12/27 07:07:17;;;;;;;22.92;6.70;;;7.10;99.90;;;;;;5009198;28;20068;-57
2023/12/27 07:09:43;;;;;;;15.60;5.75;;;7.20;99.90;;;;;;5009928;28;20022;-54
2023/12/27 07:12:09;;;;;;;27.17;5.93;;;7.20;99.90;;;;;;5008775;28;20079;-56
2023/12/27 07:14:35;;;;;;;22.27;4.97;;;7.20;99.90;;;;;;5009365;28;20108;-57
2023/12/27 07:17:00;;;;;;;27.35;5.82;;;7.20;99.90;;;;;;5010214;28;20070;-55
2023/12/27 07:19:26;;;;;;;20.90;6.15;;;7.30;99.90;;;;;;5009777;28;20030;-54
2023/12/27 07:21:51;;;;;;;18.20;6.10;;;7.30;99.90;;;;;;5010078;28;20061;-57
2023/12/27 07:24:17;;;;;;;24.65;5.57;;;7.30;99.90;;;;;;5009460;28;20496;-56
2023/12/27 07:26:42;;;;;;;25.25;6.45;;;7.30;99.90;;;;;;5009167;28;20073;-58
2023/12/27 07:29:08;;;;;;;20.40;5.35;;;7.30;99.90;;;;;;5009969;28;20205;-55
2023/12/27 07:31:33;;;;;;;21.40;5.95;;;7.40;99.90;;;;;;5008525;28;20026;-59
2023/12/27 07:33:59;;;;;;;22.27;5.72;;;7.40;99.90;;;;;;5010199;28;20022;-57
2023/12/27 07:36:24;;;;;;;18.58;5.05;;;7.50;99.90;;;;;;5009594;28;20026;-54
2023/12/27 07:38:50;;;;;;;17.15;4.47;;;7.50;99.90;;;;;;5010074;28;20030;-56
2023/12/27 07:41:15;;;;;;;24.25;4.90;;;7.50;99.90;;;;;;5008097;28;20554;-56
2023/12/27 07:43:41;;;;;;;24.10;5.47;;;7.50;99.90;;;;;;5010085;28;20037;-55
2023/12/27 07:46:07;;;;;;;23.60;4.72;;;7.50;99.90;;;;;;5010406;28;20010;-56
2023/12/27 07:48:33;;;;;;;26.45;5.22;;;7.50;99.90;;;;;;5009787;28;20056;-57
2023/12/27 07:50:59;;;;;;;13.82;4.78;;;7.60;99.90;;;;;;5008253;28;20504;-57
2023/12/27 07:53:25;;;;;;;18.65;5.05;;;7.60;99.90;;;;;;5009659;28;20108;-58
2023/12/27 07:55:50;;;;;;;16.98;4.70;;;7.60;99.90;;;;;;5009535;28;20030;-56
2023/12/27 07:58:16;;;;;;;19.35;4.75;;;7.60;99.90;;;;;;5010357;28;20026;-54
2023/12/27 08:00:41;;;;;;;9.73;3.92;;;7.60;99.90;;;;;;5009805;28;20029;-54
2023/12/27 08:03:08;;;;;;;13.43;4.38;;;7.60;99.90;;;;;;4992477;28;20076;-57
2023/12/27 08:05:35;;;;;;;19.15;4.57;;;7.60;99.90;;;;;;5010296;28;20014;-57
2023/12/27 08:08:02;;;;;;;11.80;4.60;;;7.60;99.90;;;;;;5014431;28;20037;-57
2023/12/27 08:10:27;;;;;;;15.55;4.07;;;7.70;99.90;;;;;;5012314;28;20412;-59
2023/12/27 08:12:53;;;;;;;17.98;4.28;;;7.70;99.90;;;;;;5010333;28;20014;-57
2023/12/27 08:15:18;;;;;;;13.75;4.63;;;7.70;99.90;;;;;;5012933;28;20036;-56
2023/12/27 08:17:44;;;;;;;20.73;4.70;;;7.80;99.90;;;;;;5009120;28;20512;-57
2023/12/27 08:20:10;;;;;;;13.85;3.72;;;7.80;99.90;;;;;;5013105;28;20037;-57
2023/12/27 08:22:35;;;;;;;12.43;4.55;;;7.80;99.90;;;;;;5012997;28;20110;-56
2023/12/27 08:25:01;;;;;;;20.77;5.43;;;7.80;99.90;;;;;;5007849;28;20056;-53
2023/12/27 08:27:27;;;;;;;13.57;4.50;;;7.80;99.90;;;;;;5010020;28;20022;-54
2023/12/27 08:29:52;;;;;;;10.98;4.32;;;7.80;99.90;;;;;;5003202;28;20022;-57
2023/12/27 08:32:18;;;;;;;7.88;3.67;;;7.80;99.90;;;;;;5012603;28;20022;-56
2023/12/27 08:34:44;;;;;;;16.23;5.35;;;7.80;99.90;;;;;;5012509;28;20026;-56
2023/12/27 08:37:10;;;;;;;9.40;4.68;;;7.90;99.90;;;;;;5008273;28;20121;-56
2023/12/27 08:39:36;;;;;;;9.00;4.45;;;7.90;99.90;;;;;;5009838;28;20528;-57
2023/12/27 08:42:01;;;;;;;11.35;5.00;;;7.90;99.90;;;;;;5006352;28;20125;-57
2023/12/27 08:44:27;;;;;;;10.88;5.18;;;8.00;99.90;;;;;;5007449;28;20021;-57
2023/12/27 08:46:52;;;;;;;16.63;6.63;;;8.00;99.90;;;;;;5013347;28;20022;-57
2023/12/27 08:49:18;;;;;;;13.82;4.90;;;8.10;99.90;;;;;;5010136;28;20050;-57
2023/12/27 08:51:43;;;;;;;11.82;5.95;;;8.10;99.90;;;;;;5011518;28;20495;-56
2023/12/27 08:54:09;;;;;;;14.55;5.93;;;8.20;99.90;;;;;;5012407;28;20021;-58
2023/12/27 08:56:34;;;;;;;10.73;5.82;;;8.30;99.90;;;;;;5010106;28;20065;-57
2023/12/27 08:59:00;;;;;;;20.05;6.22;;;8.30;99.90;;;;;;5009231;28;20026;-57
2023/12/27 09:01:25;;;;;;;18.35;5.05;;;8.30;99.90;;;;;;5011100;28;20030;-53
2023/12/27 09:03:51;;;;;;;12.93;5.28;;;8.30;99.90;;;;;;5004738;28;20078;-56
2023/12/27 09:06:16;;;;;;;12.48;5.72;;;8.40;99.90;;;;;;5012291;28;20365;-56
2023/12/27 09:08:42;;;;;;;10.25;4.85;;;8.50;99.90;;;;;;5009736;28;20121;-52
2023/12/27 09:11:08;;;;;;;11.57;4.38;;;8.50;99.90;;;;;;5011803;28;20029;-56
2023/12/27 09:13:34;;;;;;;8.23;4.35;;;8.60;99.90;;;;;;5007982;28;20032;-55
2023/12/27 09:16:02;;;;;;;10.80;5.32;;;8.60;99.90;;;;;;5001838;28;20026;-57
2023/12/27 09:18:28;;;;;;;9.63;5.00;;;8.60;99.90;;;;;;5006715;28;20089;-57
2023/12/27 09:20:54;;;;;;;8.23;4.68;;;8.70;99.90;;;;;;5012571;28;20411;-57
2023/12/27 09:23:19;;;;;;;11.38;5.43;;;8.70;99.90;;;;;;5009349;28;20042;-55
2023/12/27 09:25:45;;;;;;;10.55;4.93;;;8.80;99.90;;;;;;5011216;28;20033;-56
2023/12/27 09:28:10;;;;;;;12.95;4.57;;;8.80;99.90;;;;;;5012612;28;20014;-56
2023/12/27 09:30:36;;;;;;;9.10;4.35;;;8.80;99.90;;;;;;5000266;28;20026;-56
2023/12/27 09:33:02;;;;;;;5.10;3.80;;;8.90;99.90;;;;;;5012327;28;20068;-57
2023/12/27 09:35:28;;;;;;;8.07;3.70;;;8.90;99.90;;;;;;5012134;28;20100;-56
2023/12/27 09:37:53;;;;;;;10.13;3.80;;;8.90;99.90;;;;;;5012170;28;20028;-55
2023/12/27 09:40:19;;;;;;;11.43;4.18;;;8.90;99.90;;;;;;5001567;28;20048;-56
2023/12/27 09:42:47;;;;;;;11.55;3.95;;;9.00;99.90;;;;;;5009553;28;20075;-55
2023/12/27 09:45:17;;;;;;;12.30;3.90;;;9.00;99.90;;;;;;5011594;28;20022;-55
2023/12/27 09:47:44;;;;;;;8.80;4.18;;;9.10;99.90;;;;;;5009721;28;20045;-54
2023/12/27 09:50:10;;;;;;;6.15;3.28;;;9.10;99.90;;;;;;5007165;28;20014;-55
2023/12/27 09:52:39;;;;;;;7.13;3.70;;;9.10;99.90;;;;;;5012961;28;20038;-58
2023/12/27 09:55:05;;;;;;;9.73;4.20;;;9.20;99.90;;;;;;5011220;28;20091;-55
2023/12/27 09:57:31;;;;;;;8.75;3.75;;;9.20;99.90;;;;;;5008663;28;20025;-55
2023/12/27 09:59:58;;;;;;;10.07;3.80;;;9.20;99.90;;;;;;5007081;28;20508;-58
2023/12/27 10:02:28;;;;;;;4.68;3.00;;;9.20;99.90;;;;;;5005296;28;20057;-55
2023/12/27 10:05:21;;;;;;;8.10;3.40;;;9.20;99.90;;;;;;4987385;28;20018;-56
2023/12/27 10:07:47;;;;;;;5.53;3.53;;;9.20;99.90;;;;;;5002528;28;20037;-56
2023/12/27 10:10:14;;;;;;;12.40;3.97;;;9.30;99.90;;;;;;5006816;28;20022;-54
2023/12/27 10:12:40;;;;;;;8.55;3.60;;;9.30;99.90;;;;;;5006034;28;20034;-54
2023/12/27 10:15:08;;;;;;;11.13;3.55;;;9.40;99.90;;;;;;5009014;28;20439;-57
2023/12/27 10:17:33;;;;;;;15.73;4.90;;;9.40;99.90;;;;;;5005820;28;20100;-55
2023/12/27 10:19:59;;;;;;;5.38;3.35;;;9.40;99.90;;;;;;5008747;28;20168;-56
2023/12/27 10:22:27;;;;;;;7.05;3.72;;;9.50;99.90;;;;;;5011237;28;20067;-56
2023/12/27 10:24:52;;;;;;;7.80;4.20;;;9.50;99.90;;;;;;5008624;28;20159;-58
2023/12/27 10:27:18;;;;;;;7.50;4.10;;;9.50;99.90;;;;;;5010376;28;20109;-55
2023/12/27 10:29:47;;;;;;;12.13;3.85;;;9.50;99.90;;;;;;5006297;28;20018;-57
2023/12/27 10:32:14;;;;;;;8.10;3.78;;;9.50;99.90;;;;;;5003403;28;20030;-55
2023/12/27 10:34:41;;;;;;;6.10;3.65;;;9.50;99.90;;;;;;4991745;28;20047;-55
2023/12/27 10:37:11;;;;;;;6.53;2.97;;;9.50;99.90;;;;;;5001856;28;20026;-55
2023/12/27 10:39:47;;;;;;;6.93;3.45;;;9.60;99.90;;;;;;5009332;28;20388;-53
2023/12/27 10:42:16;;;;;;;7.45;3.97;;;9.60;99.90;;;;;;5003760;28;20052;-56
2023/12/27 10:44:46;;;;;;;9.18;3.78;;;9.70;99.90;;;;;;5010773;28;20018;-57
2023/12/27 10:47:17;;;;;;;4.43;3.53;;;9.60;99.90;;;;;;5010975;28;20030;-57
2023/12/27 10:49:46;;;;;;;6.93;3.90;;;9.70;99.90;;;;;;5010609;28;20492;-58
2023/12/27 10:52:12;;;;;;;7.35;2.80;;;9.70;99.90;;;;;;5008425;28;20084;-54
2023/12/27 10:54:44;;;;;;;4.38;2.90;;;9.80;99.90;;;;;;5007068;28;20563;-56
2023/12/27 10:57:14;;;;;;;6.05;3.10;;;9.80;99.90;;;;;;5005673;28;20061;-55
2023/12/27 10:59:40;;;;;;;4.32;2.63;;;9.90;99.90;;;;;;5005807;28;21250;-54
2023/12/27 11:02:06;;;;;;;7.40;2.70;;;9.90;99.90;;;;;;5010587;28;20030;-56
2023/12/27 11:04:33;;;;;;;11.25;2.83;;;10.00;99.90;;;;;;5005156;28;20057;-57
2023/12/27 11:07:00;;;;;;;12.15;2.70;;;10.00;99.90;;;;;;5009186;28;20038;-57
2023/12/27 11:09:28;;;;;;;7.57;2.83;;;10.00;99.90;;;;;;5008883;28;20064;-52
2023/12/27 11:11:56;;;;;;;2.72;1.67;;;10.10;99.90;;;;;;5009775;28;20018;-58
2023/12/27 11:14:24;;;;;;;3.78;1.52;;;10.10;99.90;;;;;;5010591;28;20109;-56
2023/12/27 11:16:54;;;;;;;6.00;1.30;;;10.10;99.90;;;;;;5010250;28;20026;-55
2023/12/27 11:19:22;;;;;;;3.30;1.23;;;10.20;99.90;;;;;;4987870;28;20021;-54
2023/12/27 11:21:47;;;;;;;2.15;1.00;;;10.30;99.90;;;;;;5009290;28;20084;-54
2023/12/27 11:24:13;;;;;;;1.38;0.90;;;10.40;99.90;;;;;;5010089;28;20053;-56
2023/12/27 11:26:39;;;;;;;1.55;1.00;;;10.40;99.90;;;;;;5007213;28;20033;-57
2023/12/27 11:29:09;;;;;;;3.05;1.40;;;10.40;99.90;;;;;;5009456;28;20404;-57
2023/12/27 11:31:39;;;;;;;4.93;1.00;;;10.50;99.90;;;;;;5009891;28;20040;-54
2023/12/27 11:34:05;;;;;;;4.10;0.77;;;10.50;99.90;;;;;;5004312;28;20022;-54
2023/12/27 11:36:31;;;;;;;1.25;0.70;;;10.60;99.90;;;;;;5009349;28;20037;-57
2023/12/27 11:38:56;;;;;;;1.85;1.00;;;10.60;99.90;;;;;;5002941;28;20030;-58
2023/12/27 11:41:22;;;;;;;1.85;0.85;;;10.50;99.90;;;;;;5009851;28;20060;-55
2023/12/27 11:43:55;;;;;;;2.03;0.63;;;10.60;99.90;;;;;;5006268;28;20076;-57
2023/12/27 11:46:25;;;;;;;1.77;1.05;;;10.60;99.90;;;;;;5007534;28;20111;-57
2023/12/27 11:48:51;;;;;;;2.72;0.63;;;10.60;99.90;;;;;;5008536;28;20094;-56
2023/12/27 11:51:34;;;;;;;2.97;0.65;;;10.60;99.90;;;;;;5003156;28;20035;-55
2023/12/27 11:54:04;;;;;;;2.47;0.88;;;10.60;99.90;;;;;;5001050;28;20030;-55
2023/12/27 11:56:34;;;;;;;4.88;0.93;;;10.60;99.90;;;;;;5008473;28;20392;-57
2023/12/27 11:59:01;;;;;;;4.53;0.90;;;10.60;99.90;;;;;;5006208;28;20028;-57
2023/12/27 12:01:36;;;;;;;3.10;0.85;;;10.70;99.90;;;;;;5010243;28;20030;-57
2023/12/27 12:04:27;;;;;;;2.10;0.95;;;10.70;99.90;;;;;;5008909;28;20026;-58
2023/12/27 12:06:58;;;;;;;3.03;1.15;;;10.70;99.90;;;;;;5007788;28;20029;-57
2023/12/27 12:09:37;;;;;;;1.15;0.57;;;10.70;99.90;;;;;;5007829;28;20088;-59
2023/12/27 12:12:22;;;;;;;3.50;1.13;;;10.70;99.90;;;;;;5004827;28;20472;-57
2023/12/27 12:14:51;;;;;;;3.28;0.90;;;10.70;99.90;;;;;;5008547;28;20443;-57
2023/12/27 12:17:17;;;;;;;3.53;0.85;;;10.70;99.90;;;;;;5006065;28;20022;-56
2023/12/27 12:19:43;;;;;;;3.50;0.90;;;10.80;99.90;;;;;;5009180;28;20068;-55
2023/12/27 12:22:09;;;;;;;1.00;0.70;;;10.80;99.90;;;;;;5009390;28;20050;-56
2023/12/27 12:24:34;;;;;;;0.98;0.88;;;10.80;99.90;;;;;;5007799;28;20018;-57
2023/12/27 12:27:01;;;;;;;1.95;0.90;;;10.90;99.90;;;;;;5009641;28;20025;-57
2023/12/27 12:29:27;;;;;;;1.23;0.70;;;11.00;99.90;;;;;;5009938;28;20049;-58
2023/12/27 12:31:54;;;;;;;6.35;3.00;;;11.00;99.90;;;;;;5005980;28;20026;-58
2023/12/27 12:34:20;;;;;;;2.95;0.90;;;11.00;99.90;;;;;;5003348;28;20529;-58
2023/12/27 12:36:46;;;;;;;1.10;0.70;;;11.10;99.90;;;;;;5009058;28;20034;-55
2023/12/27 12:39:14;;;;;;;1.13;0.77;;;11.30;99.90;;;;;;5003800;28;20034;-60
2023/12/27 12:41:40;;;;;;;9.20;0.88;;;11.30;99.90;;;;;;5006995;28;20034;-58
2023/12/27 12:44:09;;;;;;;7.82;2.95;;;11.40;99.90;;;;;;5005294;28;20030;-59